Time;durP1;ratioP1;P1;durP2;ratioP2;P2;SDS_P1;SDS_P2;PMS_P1;PMS_P2;Temp;Humidity;BMP_temperature;BMP_pressure;BME280_temperature;BME280_humidity;BME280_pressure;Samples;Min_cycle;Max_cycle;Signal;HPM_P1;HPM_P2
2022/02/12 00:00:24;;;;;;;7.18;1.25;;;;;;;0.17;50.49;103270.81;5029694;28;20036;-79
2022/02/12 00:02:53;;;;;;;8.88;1.33;;;;;;;0.18;50.21;103267.41;5030214;28;20041;-78
2022/02/12 00:05:20;;;;;;;6.28;1.13;;;;;;;0.25;49.72;103259.13;5080969;28;20045;-80
2022/02/12 00:07:46;;;;;;;4.78;1.00;;;;;;;0.36;49.53;103267.28;5016513;28;20056;-79
2022/02/12 00:10:13;;;;;;;6.75;0.80;;;;;;;0.41;49.66;103273.53;5048022;28;20029;-79
2022/02/12 00:12:39;;;;;;;5.50;1.17;;;;;;;0.12;49.32;103261.13;5054594;28;20052;-78
2022/02/12 00:15:04;;;;;;;9.25;1.25;;;;;;;0.23;49.91;103260.78;5058434;28;20041;-79
2022/02/12 00:17:30;;;;;;;8.15;0.77;;;;;;;0.30;49.67;103256.75;5057931;28;20068;-80
2022/02/12 00:19:56;;;;;;;3.58;0.57;;;;;;;0.26;49.55;103250.59;5036592;28;20421;-80
2022/02/12 00:22:22;;;;;;;3.17;0.93;;;;;;;0.36;49.25;103241.56;5048395;28;20032;-79
2022/02/12 00:24:50;;;;;;;6.22;0.80;;;;;;;0.38;49.53;103255.38;5063773;28;20029;-78
2022/02/12 00:27:16;;;;;;;13.38;1.13;;;;;;;0.41;48.80;103240.06;5049480;28;20068;-79
2022/02/12 00:29:41;;;;;;;2.45;0.70;;;;;;;0.43;48.86;103247.81;5041780;28;20064;-79
2022/02/12 00:32:07;;;;;;;8.38;0.88;;;;;;;0.12;49.39;103246.56;5031249;28;20041;-79
2022/02/12 00:34:33;;;;;;;6.30;1.40;;;;;;;0.17;49.29;103239.06;5031682;28;20379;-80
2022/02/12 00:36:59;;;;;;;7.82;2.03;;;;;;;0.15;49.51;103249.28;5030542;28;20527;-79
2022/02/12 00:39:24;;;;;;;1.52;0.70;;;;;;;0.28;49.15;103243.84;5031183;28;20040;-78
2022/02/12 00:41:50;;;;;;;8.02;1.33;;;;;;;0.13;49.50;103245.78;5044674;28;20068;-77
2022/02/12 00:44:15;;;;;;;6.15;1.05;;;;;;;0.36;49.01;103251.84;5027889;28;20072;-79
2022/02/12 00:46:41;;;;;;;10.70;1.55;;;;;;;0.33;49.37;103256.00;5026080;28;20124;-79
2022/02/12 00:49:07;;;;;;;5.15;1.17;;;;;;;0.35;49.18;103249.22;5026293;28;20033;-80
2022/02/12 00:51:33;;;;;;;6.45;1.02;;;;;;;0.35;49.39;103238.94;5027081;28;20323;-79
2022/02/12 00:53:59;;;;;;;5.05;0.80;;;;;;;0.29;49.46;103239.56;5021064;28;20045;-78
2022/02/12 00:56:25;;;;;;;2.95;1.42;;;;;;;0.35;48.81;103242.38;5063979;28;20021;-79
2022/02/12 00:58:53;;;;;;;5.55;1.00;;;;;;;0.10;49.80;103237.94;5044955;28;20098;-79
2022/02/12 01:01:19;;;;;;;2.90;0.80;;;;;;;0.34;49.06;103232.03;5010714;28;20025;-79
2022/02/12 01:03:47;;;;;;;3.58;1.25;;;;;;;0.34;49.00;103229.44;5010305;28;20045;-79
2022/02/12 01:06:12;;;;;;;7.03;1.05;;;;;;;0.21;48.94;103238.34;5027056;28;20064;-77
2022/02/12 01:08:38;;;;;;;3.75;1.50;;;;;;;0.03;49.39;103234.22;5026936;28;20041;-80
2022/02/12 01:11:07;;;;;;;2.95;0.90;;;;;;;-0.08;49.52;103232.91;5005166;28;20038;-79
2022/02/12 01:13:33;;;;;;;3.58;0.80;;;;;;;-0.22;49.60;103234.00;5040665;28;20073;-79
2022/02/12 01:15:58;;;;;;;9.82;1.50;;;;;;;-0.15;49.66;103221.50;5026955;28;20064;-79
2022/02/12 01:18:24;;;;;;;4.13;1.60;;;;;;;-0.21;49.44;103226.34;5025754;28;20963;-80
2022/02/12 01:20:50;;;;;;;7.53;1.63;;;;;;;-0.35;50.03;103233.47;5042299;28;20026;-79
2022/02/12 01:23:15;;;;;;;6.32;1.90;;;;;;;-0.38;49.92;103232.47;5041511;28;20332;-79
2022/02/12 01:25:41;;;;;;;8.07;1.55;;;;;;;-0.47;50.39;103229.50;5043941;28;20430;-79
2022/02/12 01:28:06;;;;;;;3.67;1.15;;;;;;;-0.47;50.10;103226.94;5058622;28;20109;-78
2022/02/12 01:30:32;;;;;;;4.53;1.00;;;;;;;-0.62;50.40;103229.69;5043744;28;20037;-80
2022/02/12 01:32:58;;;;;;;8.50;1.45;;;;;;;-0.57;50.01;103217.94;5052177;28;20067;-80
2022/02/12 01:35:24;;;;;;;10.60;1.10;;;;;;;-0.87;50.48;103225.16;5048609;28;20037;-79
2022/02/12 01:37:51;;;;;;;5.47;1.08;;;;;;;-0.91;50.89;103218.97;5044652;28;20105;-80
2022/02/12 01:40:21;;;;;;;8.05;1.23;;;;;;;-0.99;50.88;103216.09;5065841;28;20024;-78
2022/02/12 01:42:47;;;;;;;5.95;1.55;;;;;;;-1.02;50.95;103221.09;5053356;28;20064;-80
2022/02/12 01:45:13;;;;;;;20.98;2.17;;;;;;;-1.04;50.93;103208.97;5063248;28;20064;-80
2022/02/12 01:47:39;;;;;;;17.83;1.30;;;;;;;-1.15;51.09;103211.03;5048292;28;20310;-78
2022/02/12 01:50:06;;;;;;;5.72;1.52;;;;;;;-1.16;51.02;103211.81;5029030;28;20035;-79
2022/02/12 01:52:32;;;;;;;4.63;1.35;;;;;;;-1.28;51.30;103213.84;5053018;28;20079;-76
2022/02/12 01:55:00;;;;;;;9.93;1.05;;;;;;;-1.25;51.33;103207.13;5058493;28;20189;-78
2022/02/12 01:57:26;;;;;;;7.00;1.42;;;;;;;-1.23;50.98;103202.09;4991978;28;20130;-78
2022/02/12 01:59:51;;;;;;;6.75;1.70;;;;;;;-1.41;51.65;103199.53;5033001;28;20056;-78
2022/02/12 02:02:17;;;;;;;4.00;1.58;;;;;;;-1.35;51.00;103196.38;5025731;28;20076;-81
2022/02/12 02:04:43;;;;;;;10.88;2.28;;;;;;;-1.47;51.22;103194.97;5027012;28;20043;-79
2022/02/12 02:07:12;;;;;;;5.05;1.60;;;;;;;-1.57;51.51;103186.81;5009143;28;20045;-78
2022/02/12 02:09:37;;;;;;;7.22;1.48;;;;;;;-1.51;51.17;103187.97;5041976;28;20385;-80
2022/02/12 02:12:04;;;;;;;3.60;1.35;;;;;;;-1.53;51.56;103194.72;5036644;28;20052;-79
2022/02/12 02:14:38;;;;;;;11.18;1.27;;;;;;;-1.59;51.82;103185.03;5026860;28;20345;-79
2022/02/12 02:17:05;;;;;;;2.35;0.63;;;;;;;-1.56;51.52;103186.00;5031782;28;20044;-78
2022/02/12 02:19:32;;;;;;;9.00;1.75;;;;;;;-1.54;51.42;103177.56;5026673;28;20041;-79
2022/02/12 02:21:59;;;;;;;3.88;1.42;;;;;;;-1.57;51.14;103171.41;5043084;28;20487;-78
2022/02/12 02:24:26;;;;;;;3.35;1.15;;;;;;;-1.63;51.55;103172.00;5044466;28;20112;-80
2022/02/12 02:27:06;;;;;;;12.68;1.58;;;;;;;-1.88;52.00;103170.81;5009249;28;20049;-79
2022/02/12 02:29:31;;;;;;;5.32;1.10;;;;;;;-1.74;51.44;103173.16;5019991;28;20036;-80
2022/02/12 02:31:57;;;;;;;6.63;0.70;;;;;;;-1.83;52.00;103163.34;4993753;28;20137;-80
2022/02/12 02:34:23;;;;;;;4.13;1.50;;;;;;;-1.72;51.23;103167.31;5059260;28;20057;-80
2022/02/12 02:36:52;;;;;;;3.50;1.13;;;;;;;-1.78;51.54;103166.13;5076683;28;20033;-78
2022/02/12 02:39:17;;;;;;;8.43;1.65;;;;;;;-1.90;52.24;103164.72;5020011;28;20041;-79
2022/02/12 02:41:43;;;;;;;9.23;1.90;;;;;;;-1.83;51.66;103169.34;5009642;28;20067;-77
2022/02/12 02:44:08;;;;;;;4.10;1.10;;;;;;;-1.83;51.69;103161.66;5013267;28;20890;-80
2022/02/12 02:46:34;;;;;;;9.75;1.58;;;;;;;-1.93;52.19;103163.69;5017366;28;20040;-79
2022/02/12 02:49:00;;;;;;;7.78;1.52;;;;;;;-1.91;52.16;103165.56;5033731;28;20033;-79
2022/02/12 02:56:55;;;;;;;7.72;1.02;;;;;;;-1.85;51.67;103152.13;5077315;28;20024;-80
2022/02/12 02:59:20;;;;;;;7.80;1.02;;;;;;;-2.01;52.02;103142.84;5078208;28;20029;-79
2022/02/12 03:01:52;;;;;;;9.15;1.52;;;;;;;-2.07;52.02;103140.88;5054851;28;20132;-80
2022/02/12 03:04:19;;;;;;;11.82;1.40;;;;;;;-2.11;52.51;103138.03;5057911;28;20507;-80
2022/02/12 03:06:45;;;;;;;4.72;1.17;;;;;;;-2.09;52.33;103136.44;5076842;28;20052;-79
2022/02/12 03:09:11;;;;;;;5.00;1.10;;;;;;;-2.22;52.26;103137.53;5047028;28;20033;-79
2022/02/12 03:11:37;;;;;;;4.20;1.30;;;;;;;-2.12;51.83;103129.47;5049338;28;20453;-80
2022/02/12 03:14:03;;;;;;;8.32;1.40;;;;;;;-2.21;52.44;103129.91;5028493;28;20051;-79
2022/02/12 03:16:28;;;;;;;7.38;0.70;;;;;;;-2.16;52.33;103127.56;5058381;28;20690;-79
2022/02/12 03:18:54;;;;;;;10.52;1.38;;;;;;;-2.09;52.18;103121.06;5060265;28;20119;-78
2022/02/12 03:21:19;;;;;;;8.35;0.95;;;;;;;-2.08;51.84;103110.91;5049064;28;20029;-79
2022/02/12 03:23:45;;;;;;;6.15;1.15;;;;;;;-2.14;51.94;103118.28;5035544;28;20501;-80
2022/02/12 03:26:12;;;;;;;1.92;0.90;;;;;;;-2.18;52.17;103113.81;5059654;28;20495;-78
2022/02/12 03:28:38;;;;;;;6.30;1.25;;;;;;;-2.36;52.68;103115.47;5045300;28;20045;-80
2022/02/12 03:31:04;;;;;;;4.95;0.93;;;;;;;-2.27;52.49;103113.34;5060729;28;20037;-81
2022/02/12 03:33:30;;;;;;;7.57;0.90;;;;;;;-2.23;52.10;103116.16;5048823;28;20044;-79
2022/02/12 03:35:55;;;;;;;3.35;1.15;;;;;;;-2.28;52.06;103115.06;5028294;28;20040;-79
2022/02/12 03:38:27;;;;;;;12.13;1.80;;;;;;;-2.43;52.90;103109.16;5058301;28;20408;-78
2022/02/12 03:41:00;;;;;;;19.65;2.03;;;;;;;-2.46;53.03;103116.72;5027978;28;20044;-77
2022/02/12 03:43:28;;;;;;;3.88;0.85;;;;;;;-2.36;52.72;103111.22;5028087;28;20041;-81
2022/02/12 03:45:54;;;;;;;12.30;2.17;;;;;;;-2.37;52.48;103111.16;5061343;28;20135;-80
2022/02/12 03:48:23;;;;;;;5.82;1.08;;;;;;;-2.50;52.88;103107.09;5062099;28;20528;-79
2022/02/12 03:50:49;;;;;;;10.40;0.80;;;;;;;-2.40;53.00;103100.75;5058954;28;20033;-80
2022/02/12 03:53:14;;;;;;;4.47;1.02;;;;;;;-2.36;52.40;103094.97;5040707;28;20508;-80
2022/02/12 03:55:40;;;;;;;5.55;0.77;;;;;;;-2.39;52.32;103092.28;5008100;28;20073;-78
2022/02/12 03:58:09;;;;;;;6.82;0.98;;;;;;;-2.30;52.27;103093.59;5023785;28;20065;-80
2022/02/12 04:00:34;;;;;;;2.50;0.75;;;;;;;-2.33;52.11;103083.22;5025657;28;20033;-80
2022/02/12 04:03:01;;;;;;;5.57;1.02;;;;;;;-2.47;52.35;103089.31;5010990;28;20044;-80
2022/02/12 04:05:27;;;;;;;5.10;1.35;;;;;;;-2.61;53.17;103095.44;5026427;28;20391;-79
2022/02/12 04:07:52;;;;;;;5.75;1.33;;;;;;;-2.55;52.87;103095.75;5019353;28;20048;-80
2022/02/12 04:10:18;;;;;;;3.15;1.40;;;;;;;-2.47;52.36;103091.88;5047727;28;20098;-79
2022/02/12 04:12:45;;;;;;;6.57;1.50;;;;;;;-2.42;52.26;103093.00;5037418;28;20049;-79
2022/02/12 04:15:12;;;;;;;5.50;1.35;;;;;;;-2.48;52.52;103082.47;5061393;28;20029;-78
2022/02/12 04:17:39;;;;;;;5.05;1.25;;;;;;;-2.49;52.42;103090.94;5043474;28;20095;-79
2022/02/12 04:20:09;;;;;;;8.90;1.02;;;;;;;-2.53;53.09;103073.69;5012509;28;20101;-79
2022/02/12 04:22:36;;;;;;;6.75;1.52;;;;;;;-2.68;53.23;103071.22;5027762;28;20120;-79
2022/02/12 04:25:04;;;;;;;8.85;1.73;;;;;;;-2.54;52.96;103069.34;5044830;28;20353;-80
2022/02/12 04:27:30;;;;;;;5.22;1.48;;;;;;;-2.52;52.96;103060.94;5009309;28;20470;-80
2022/02/12 04:29:55;;;;;;;4.63;2.65;;;;;;;-2.54;52.76;103061.66;5044674;28;20037;-78
2022/02/12 04:32:21;;;;;;;4.85;1.85;;;;;;;-2.44;52.56;103063.88;5045511;28;20033;-78
2022/02/12 04:34:51;;;;;;;10.02;2.53;;;;;;;-2.58;52.86;103064.88;5061822;28;20475;-80
2022/02/12 04:37:18;;;;;;;5.60;1.63;;;;;;;-2.75;53.30;103064.91;5027657;28;20045;-78
2022/02/12 04:39:44;;;;;;;7.28;2.53;;;;;;;-2.58;52.79;103054.63;5044681;28;20096;-79
2022/02/12 04:42:13;;;;;;;3.65;1.70;;;;;;;-2.59;52.76;103043.50;5029666;28;20551;-77
2022/02/12 04:44:40;;;;;;;11.38;1.83;;;;;;;-2.52;52.52;103034.44;5047658;28;20037;-76
2022/02/12 04:47:06;;;;;;;8.45;1.85;;;;;;;-2.56;52.75;103037.66;5027707;28;20049;-79
2022/02/12 04:49:33;;;;;;;7.47;2.13;;;;;;;-2.77;53.38;103027.25;5041235;28;20057;-81
2022/02/12 04:51:59;;;;;;;10.13;1.67;;;;;;;-2.77;53.72;103040.91;5058145;28;20049;-80
2022/02/12 04:54:24;;;;;;;8.80;2.97;;;;;;;-2.61;53.14;103039.13;5021977;28;20040;-77
2022/02/12 04:56:50;;;;;;;11.32;2.10;;;;;;;-2.68;53.40;103037.94;5008544;28;20040;-80
2022/02/12 04:59:17;;;;;;;5.82;1.50;;;;;;;-2.65;53.17;103027.84;5037456;28;20064;-78
2022/02/12 05:01:42;;;;;;;6.47;2.22;;;;;;;-2.65;53.37;103027.84;5020638;28;20095;-79
2022/02/12 05:04:08;;;;;;;8.27;2.58;;;;;;;-2.66;53.23;103021.84;5024673;28;20029;-80
2022/02/12 05:06:34;;;;;;;13.93;2.13;;;;;;;-2.72;53.19;103011.28;5013171;28;20063;-77
2022/02/12 05:09:00;;;;;;;4.75;1.23;;;;;;;-2.75;53.53;103016.28;5020885;28;20037;-79
2022/02/12 05:11:25;;;;;;;7.60;2.03;;;;;;;-2.68;53.50;103013.22;5020845;28;20510;-78
2022/02/12 05:13:52;;;;;;;4.65;2.22;;;;;;;-2.74;53.33;103007.78;5020023;28;20064;-79
2022/02/12 05:16:18;;;;;;;11.50;1.52;;;;;;;-2.82;53.47;103003.97;5020430;28;20029;-79
2022/02/12 05:18:44;;;;;;;6.53;1.52;;;;;;;-2.76;53.40;103004.28;5052707;28;20510;-79
2022/02/12 05:21:10;;;;;;;5.53;1.95;;;;;;;-3.16;55.46;102999.72;5021626;28;20037;-77
2022/02/12 05:23:36;;;;;;;8.27;1.92;;;;;;;-2.91;54.61;102988.19;5036402;28;20045;-78
2022/02/12 05:26:02;;;;;;;9.27;1.63;;;;;;;-2.77;54.03;102986.28;5037501;28;20490;-78
2022/02/12 05:28:28;;;;;;;10.20;3.47;;;;;;;-2.85;54.23;102979.13;5004369;28;20100;-77
2022/02/12 05:30:53;;;;;;;3.53;2.13;;;;;;;-2.81;53.96;102982.69;5036677;28;20124;-78
2022/02/12 05:33:19;;;;;;;14.25;2.28;;;;;;;-2.79;54.08;102983.66;5037069;28;20654;-77
2022/02/12 05:35:45;;;;;;;5.10;2.10;;;;;;;-2.84;54.47;102974.88;5021870;28;20051;-77
2022/02/12 05:38:12;;;;;;;8.48;1.75;;;;;;;-2.78;54.04;102972.63;5018388;28;20072;-78
2022/02/12 05:40:38;;;;;;;7.25;2.63;;;;;;;-3.01;55.00;102975.72;5053090;28;20048;-78
2022/02/12 05:43:03;;;;;;;4.50;1.63;;;;;;;-2.76;54.32;102968.47;5046367;28;20138;-80
2022/02/12 05:45:30;;;;;;;13.05;1.48;;;;;;;-2.88;54.70;102966.16;5056721;28;20497;-80
2022/02/12 05:47:55;;;;;;;6.50;1.60;;;;;;;-2.72;54.62;102964.34;5028977;28;20060;-79
2022/02/12 05:50:23;;;;;;;13.52;2.30;;;;;;;-2.98;54.90;102957.94;5005616;28;20029;-79
2022/02/12 05:52:48;;;;;;;4.18;1.42;;;;;;;-2.90;55.26;102964.31;5018786;28;20589;-79
2022/02/12 05:55:14;;;;;;;3.83;1.23;;;;;;;-3.00;55.54;102964.69;5020796;28;20072;-78
2022/02/12 05:57:39;;;;;;;12.82;2.15;;;;;;;-3.05;55.90;102964.44;5051495;28;20048;-78
2022/02/12 06:00:06;;;;;;;6.97;1.65;;;;;;;-3.35;56.50;102963.78;5004013;28;20558;-78
2022/02/12 06:02:37;;;;;;;4.18;1.80;;;;;;;-2.76;54.97;102955.66;5018843;28;20120;-79
2022/02/12 06:05:03;;;;;;;9.00;2.38;;;;;;;-2.92;54.84;102940.34;5053272;28;20124;-80
2022/02/12 06:07:29;;;;;;;8.10;1.40;;;;;;;-2.99;55.37;102943.41;5002687;28;20658;-80
2022/02/12 06:09:54;;;;;;;5.50;0.98;;;;;;;-2.77;55.15;102940.22;5051217;28;20119;-78
2022/02/12 06:12:20;;;;;;;4.65;1.65;;;;;;;-2.66;54.20;102945.03;5001992;28;20045;-80
2022/02/12 06:14:45;;;;;;;7.57;0.90;;;;;;;-2.73;54.03;102942.13;5019954;28;20040;-80
2022/02/12 06:17:11;;;;;;;6.57;1.50;;;;;;;-2.67;54.25;102943.31;5004145;28;20045;-79
2022/02/12 06:19:36;;;;;;;6.97;1.50;;;;;;;-2.85;54.96;102937.28;5018784;28;20037;-80
2022/02/12 06:22:02;;;;;;;8.00;1.15;;;;;;;-2.77;54.70;102938.53;5002317;28;20048;-79
2022/02/12 06:24:28;;;;;;;6.82;1.65;;;;;;;-2.66;54.37;102937.38;5018340;28;20502;-80
2022/02/12 06:26:57;;;;;;;18.58;1.50;;;;;;;-2.74;54.23;102936.09;5000193;28;20037;-80
2022/02/12 06:29:24;;;;;;;9.13;1.35;;;;;;;-2.69;54.40;102938.91;5035937;28;20057;-78
2022/02/12 06:31:49;;;;;;;16.83;2.28;;;;;;;-2.67;54.34;102938.19;5035911;28;20033;-78
2022/02/12 06:34:15;;;;;;;8.95;1.25;;;;;;;-2.73;54.40;102942.13;5020234;28;20040;-78
2022/02/12 06:36:40;;;;;;;6.85;1.20;;;;;;;-2.58;53.63;102939.41;5018815;28;20033;-80
2022/02/12 06:39:06;;;;;;;12.88;1.60;;;;;;;-2.67;54.16;102938.19;5021031;28;20029;-77
2022/02/12 06:41:31;;;;;;;15.38;1.63;;;;;;;-2.69;54.28;102939.78;5051896;28;20025;-79
2022/02/12 06:43:57;;;;;;;10.25;1.60;;;;;;;-2.77;54.37;102935.09;5019613;28;20067;-80
2022/02/12 06:46:22;;;;;;;3.13;1.27;;;;;;;-2.61;54.17;102936.72;5019274;28;20771;-80
2022/02/12 06:48:48;;;;;;;7.00;1.20;;;;;;;-2.54;54.05;102928.50;5052089;28;20049;-80
2022/02/12 06:51:15;;;;;;;7.88;2.35;;;;;;;-2.85;54.57;102932.16;5020795;28;20033;-81
2022/02/12 06:53:42;;;;;;;9.25;1.30;;;;;;;-2.86;54.32;102923.59;5016655;28;20063;-79
2022/02/12 06:56:08;;;;;;;6.43;1.00;;;;;;;-2.55;53.46;102921.66;5051017;28;20091;-82
2022/02/12 06:58:34;;;;;;;16.67;2.63;;;;;;;-2.67;53.87;102927.03;5008909;28;20506;-78
2022/02/12 07:00:59;;;;;;;10.82;1.60;;;;;;;-2.61;53.63;102919.66;5034486;28;20328;-80
2022/02/12 07:03:25;;;;;;;4.88;1.30;;;;;;;-2.45;53.46;102924.72;5038732;28;20702;-80
2022/02/12 07:05:51;;;;;;;5.93;1.00;;;;;;;-2.44;53.20;102925.59;5043050;28;20060;-82
2022/02/12 07:08:16;;;;;;;6.43;1.25;;;;;;;-2.64;53.76;102915.28;5041153;28;20057;-81
2022/02/12 07:10:42;;;;;;;16.05;2.00;;;;;;;-2.42;53.33;102909.47;5026279;28;20049;-79
2022/02/12 07:13:08;;;;;;;16.75;1.52;;;;;;;-2.67;53.99;102907.47;5040793;28;20033;-82
2022/02/12 07:15:33;;;;;;;7.18;1.70;;;;;;;-2.32;53.04;102910.78;5026410;28;20193;-81
2022/02/12 07:17:59;;;;;;;7.43;1.80;;;;;;;-2.25;52.90;102917.94;5025716;28;20046;-80
2022/02/12 07:20:24;;;;;;;5.78;0.90;;;;;;;-2.46;53.45;102909.28;5019380;28;20083;-80
2022/02/12 07:22:50;;;;;;;6.03;1.15;;;;;;;-2.27;53.11;102909.31;5017038;28;22110;-79
2022/02/12 07:25:16;;;;;;;10.50;1.65;;;;;;;-1.91;52.07;102904.09;5018508;28;20040;-80
2022/02/12 07:27:43;;;;;;;18.17;2.30;;;;;;;-2.41;53.46;102895.00;5049283;28;20135;-80
2022/02/12 07:30:14;;;;;;;4.20;1.63;;;;;;;-2.09;52.85;102898.13;5004673;28;20468;-81
2022/02/12 07:32:41;;;;;;;4.00;1.40;;;;;;;-1.93;51.93;102895.47;4999841;28;20447;-80
2022/02/12 07:35:09;;;;;;;3.88;1.63;;;;;;;-2.11;52.59;102894.63;5020227;28;20047;-79
2022/02/12 07:37:38;;;;;;;12.23;1.63;;;;;;;-1.85;52.22;102888.97;5027124;28;20045;-78
2022/02/12 07:40:05;;;;;;;8.65;2.10;;;;;;;-1.69;51.53;102884.50;5022773;28;20034;-81
2022/02/12 07:42:31;;;;;;;3.60;2.15;;;;;;;-1.93;52.26;102890.34;5012680;28;20045;-79
2022/02/12 07:44:57;;;;;;;9.95;2.90;;;;;;;-1.54;51.69;102892.88;5025612;28;20033;-79
2022/02/12 07:47:23;;;;;;;8.73;2.08;;;;;;;-0.94;50.05;102885.13;5039476;28;20041;-81
2022/02/12 07:49:49;;;;;;;4.78;1.20;;;;;;;-0.93;49.61;102886.84;5005498;28;20126;-80
2022/02/12 07:52:15;;;;;;;13.02;1.90;;;;;;;-0.61;48.77;102889.84;5054591;28;20045;-81
2022/02/12 07:54:41;;;;;;;12.75;2.60;;;;;;;-0.47;48.53;102883.53;5036995;28;21473;-78
2022/02/12 07:57:06;;;;;;;8.95;1.98;;;;;;;0.64;46.30;102884.94;5042048;28;20353;-78
2022/02/12 07:59:32;;;;;;;8.40;1.38;;;;;;;0.41;45.39;102878.97;5042489;28;20147;-79
2022/02/12 08:01:57;;;;;;;11.00;2.17;;;;;;;0.36;45.23;102870.22;5036995;28;20049;-79
2022/02/12 08:04:23;;;;;;;6.90;1.25;;;;;;;-0.13;46.28;102872.81;5039131;28;20032;-79
2022/02/12 08:09:32;;;;;;;13.70;1.60;;;;;;;1.79;42.77;102865.31;5042367;28;20033;-80
2022/02/12 08:12:14;;;;;;;14.52;1.83;;;;;;;3.11;40.85;102861.00;5030338;28;20048;-81
2022/02/12 08:14:42;;;;;;;9.23;2.30;;;;;;;3.87;37.08;102849.69;5029280;28;20040;-78
2022/02/12 08:17:08;;;;;;;9.77;2.08;;;;;;;5.10;35.53;102857.00;5044625;28;20043;-78
2022/02/12 08:19:34;;;;;;;9.35;2.03;;;;;;;5.98;33.72;102862.47;5060377;28;20098;-75
2022/02/12 08:21:59;;;;;;;12.52;2.90;;;;;;;5.34;33.08;102862.53;5064468;28;20048;-80
2022/02/12 08:24:29;;;;;;;5.60;1.48;;;;;;;6.62;32.44;102850.97;5058798;28;20040;-82
2022/02/12 08:27:01;;;;;;;7.88;2.28;;;;;;;6.22;34.70;102861.88;5036419;28;20523;-79
2022/02/12 08:29:28;;;;;;;8.77;1.60;;;;;;;5.85;33.82;102864.06;5052685;28;20041;-81
2022/02/12 08:32:00;;;;;;;5.18;1.52;;;;;;;5.80;32.70;102863.13;5054283;28;20033;-80
2022/02/12 08:35:21;;;;;;;8.07;3.00;;;;;;;5.42;34.72;102860.06;5061477;28;21096;-77
2022/02/12 08:57:20;;;;;;;4.78;1.27;;;;;;;4.54;35.58;102839.69;4983248;28;20147;-81
2022/02/12 09:00:25;;;;;;;8.75;1.50;;;;;;;5.75;32.19;102843.16;5019621;28;20049;-82
2022/02/12 09:03:45;;;;;;;7.00;2.15;;;;;;;5.63;32.95;102841.28;5021025;28;20118;-79
2022/02/12 09:06:17;;;;;;;6.85;1.63;;;;;;;4.41;35.36;102826.56;5027760;28;20076;-81
2022/02/12 09:08:51;;;;;;;7.95;1.42;;;;;;;2.65;38.74;102828.91;5055266;28;20067;-79
2022/02/12 09:11:24;;;;;;;11.60;1.70;;;;;;;3.37;37.18;102819.38;5076671;28;20033;-78
2022/02/12 09:13:53;;;;;;;13.43;1.50;;;;;;;3.05;37.63;102823.81;5057551;28;20041;-79
2022/02/12 09:16:20;;;;;;;6.55;2.30;;;;;;;3.66;36.88;102814.81;5077492;28;20033;-77
2022/02/12 09:18:48;;;;;;;10.43;1.88;;;;;;;4.54;35.31;102808.59;5052116;28;20040;-77
2022/02/12 09:21:14;;;;;;;6.60;1.40;;;;;;;4.46;35.43;102811.09;5032532;28;20332;-78
2022/02/12 09:23:40;;;;;;;8.38;2.75;;;;;;;4.27;35.69;102819.38;5051124;28;20052;-78
2022/02/12 09:26:05;;;;;;;5.97;1.67;;;;;;;4.71;35.19;102812.34;5018266;28;20029;-79
2022/02/12 09:28:31;;;;;;;5.03;1.52;;;;;;;3.86;35.94;102802.25;5022679;28;20135;-78
2022/02/12 09:30:57;;;;;;;10.23;2.30;;;;;;;3.03;37.91;102808.28;5020634;28;20033;-78
2022/02/12 09:33:22;;;;;;;2.60;1.33;;;;;;;4.04;37.38;102795.69;5050448;28;20407;-77
2022/02/12 09:35:53;;;;;;;5.95;2.17;;;;;;;2.08;38.79;102803.34;5051736;28;20064;-79
2022/02/12 09:38:26;;;;;;;7.63;1.58;;;;;;;3.57;37.85;102794.78;5068169;28;20265;-80
2022/02/12 09:40:56;;;;;;;13.60;2.75;;;;;;;3.08;38.63;102798.91;5068746;28;20586;-78
2022/02/12 09:43:25;;;;;;;10.20;1.75;;;;;;;3.23;37.88;102787.19;5032086;28;20135;-78
2022/02/12 09:46:08;;;;;;;15.02;1.90;;;;;;;2.77;38.96;102784.41;5066597;28;20048;-77
2022/02/12 09:48:35;;;;;;;7.03;1.52;;;;;;;4.26;35.89;102776.22;5027946;28;20045;-76
2022/02/12 09:51:03;;;;;;;11.30;2.08;;;;;;;2.83;37.96;102765.63;5034718;28;20032;-77
2022/02/12 09:53:30;;;;;;;7.28;1.35;;;;;;;4.30;37.37;102776.31;5033180;28;20505;-76
2022/02/12 09:55:56;;;;;;;13.80;2.17;;;;;;;3.98;37.19;102771.47;5050628;28;20060;-79
2022/02/12 09:58:22;;;;;;;6.63;1.90;;;;;;;3.65;36.99;102770.81;5048752;28;20570;-76
2022/02/12 10:00:48;;;;;;;6.60;1.58;;;;;;;4.64;35.77;102772.53;5050784;28;20048;-76
2022/02/12 10:03:14;;;;;;;10.57;1.60;;;;;;;4.12;37.23;102766.50;5052470;28;20465;-78
2022/02/12 10:05:49;;;;;;;4.50;1.40;;;;;;;4.62;35.81;102760.41;5052165;28;20578;-77
2022/02/12 10:08:17;;;;;;;16.63;2.88;;;;;;;4.50;36.20;102755.91;5010485;28;20041;-79
2022/02/12 10:10:45;;;;;;;6.43;1.55;;;;;;;5.09;35.25;102764.56;5034405;28;20040;-78
2022/02/12 10:13:19;;;;;;;11.70;1.92;;;;;;;5.41;35.14;102759.75;5049874;28;20043;-77
2022/02/12 10:15:50;;;;;;;8.48;2.13;;;;;;;5.10;34.66;102754.22;5040835;28;20037;-80
2022/02/12 10:18:20;;;;;;;5.60;2.10;;;;;;;4.73;36.19;102756.25;5049888;28;20090;-77
2022/02/12 10:20:54;;;;;;;8.43;1.73;;;;;;;4.66;35.86;102759.59;5041166;28;20396;-74
2022/02/12 10:23:24;;;;;;;12.95;2.15;;;;;;;4.45;35.70;102746.31;5012990;28;20739;-75
2022/02/12 10:26:08;;;;;;;9.27;1.77;;;;;;;4.86;34.98;102743.50;5008667;28;20041;-74
2022/02/12 10:28:42;;;;;;;9.70;2.35;;;;;;;4.25;36.52;102744.28;5006818;28;20054;-74
2022/02/12 10:31:12;;;;;;;5.90;1.83;;;;;;;4.00;36.57;102737.81;4984897;28;20030;-75
2022/02/12 10:33:45;;;;;;;12.02;2.10;;;;;;;4.04;37.04;102738.75;4985382;28;20078;-77
2022/02/12 10:36:16;;;;;;;6.32;1.30;;;;;;;4.00;37.22;102737.81;4982149;28;20030;-74
2022/02/12 10:38:47;;;;;;;7.25;2.15;;;;;;;5.40;34.94;102737.28;4980336;28;20587;-75
2022/02/12 10:41:15;;;;;;;2.95;1.38;;;;;;;5.27;35.24;102731.06;5014527;28;20037;-72
2022/02/12 10:43:43;;;;;;;8.32;1.50;;;;;;;5.37;35.00;102726.84;4984289;28;20108;-74
2022/02/12 10:46:12;;;;;;;14.40;2.42;;;;;;;4.83;36.13;102729.63;4982587;28;20037;-76
2022/02/12 10:48:41;;;;;;;11.88;1.83;;;;;;;5.66;34.35;102722.00;4984106;28;20038;-73
2022/02/12 10:51:14;;;;;;;4.88;1.50;;;;;;;6.41;33.00;102717.47;4988890;28;20034;-73
2022/02/12 10:53:55;;;;;;;7.22;2.20;;;;;;;5.87;34.03;102708.38;5002807;28;20508;-73
2022/02/12 10:56:20;;;;;;;10.43;1.77;;;;;;;5.34;35.54;102708.69;4984106;28;20477;-74
2022/02/12 10:58:49;;;;;;;7.07;1.50;;;;;;;6.08;32.87;102700.78;4982064;28;20046;-74
2022/02/12 11:01:16;;;;;;;12.40;1.55;;;;;;;6.61;33.07;102690.75;4982166;28;20035;-76
2022/02/12 11:03:45;;;;;;;7.30;1.48;;;;;;;5.53;33.73;102692.47;4974944;28;20054;-77
2022/02/12 11:06:13;;;;;;;12.10;2.10;;;;;;;6.40;33.08;102684.59;4983999;28;20026;-74
2022/02/12 11:08:41;;;;;;;5.93;2.22;;;;;;;6.42;33.31;102685.47;4980072;28;20034;-73
2022/02/12 11:11:07;;;;;;;14.25;2.10;;;;;;;5.79;33.25;102673.69;4980683;28;20034;-74
2022/02/12 11:13:43;;;;;;;7.60;2.05;;;;;;;5.45;33.87;102670.78;4992661;28;20033;-73
2022/02/12 11:16:11;;;;;;;7.93;1.85;;;;;;;6.13;33.50;102668.75;4986646;28;20571;-74
2022/02/12 11:18:39;;;;;;;7.63;2.35;;;;;;;6.52;32.43;102662.13;5001133;28;20698;-73
2022/02/12 11:21:05;;;;;;;9.07;2.03;;;;;;;5.38;34.85;102656.00;4982405;28;20046;-73
2022/02/12 11:23:34;;;;;;;4.45;0.93;;;;;;;4.80;36.20;102653.59;4978713;28;20057;-73
2022/02/12 11:26:02;;;;;;;10.82;2.30;;;;;;;6.19;34.17;102633.31;4982774;28;20478;-72
2022/02/12 11:28:32;;;;;;;7.07;2.13;;;;;;;5.77;34.46;102641.66;4983964;28;20066;-71
2022/02/12 11:31:18;;;;;;;11.70;1.92;;;;;;;6.72;32.34;102631.91;4976598;28;20038;-74
2022/02/12 11:34:11;;;;;;;4.55;1.48;;;;;;;6.41;32.31;102618.78;4969907;28;20698;-73
2022/02/12 11:36:38;;;;;;;9.70;1.80;;;;;;;6.17;32.90;102613.41;4969046;28;20435;-73
2022/02/12 11:39:13;;;;;;;12.90;2.42;;;;;;;5.49;33.93;102618.09;4971490;28;20038;-72
2022/02/12 11:41:43;;;;;;;9.18;1.98;;;;;;;5.75;33.62;102612.22;4963222;28;20173;-73
2022/02/12 11:44:10;;;;;;;10.10;2.47;;;;;;;5.18;34.37;102607.41;4999673;28;20125;-74
2022/02/12 11:46:41;;;;;;;12.98;1.48;;;;;;;5.04;34.88;102609.00;4968014;28;20034;-72
2022/02/12 11:49:28;;;;;;;9.32;2.00;;;;;;;5.06;34.44;102596.91;4967208;28;20039;-73
2022/02/12 11:51:56;;;;;;;12.40;1.65;;;;;;;5.10;35.31;102593.50;4947736;28;20038;-73
2022/02/12 11:54:46;;;;;;;10.60;2.78;;;;;;;5.22;34.61;102593.63;4999250;28;20451;-73
2022/02/12 11:57:16;;;;;;;8.13;1.55;;;;;;;5.02;34.57;102590.81;4967631;28;20050;-73